Auxier, Kentucky
Current Conditions -  °F | °C
As of 10:55 AM on Friday 28 Nov 2014 (Local Time) from KSJS Reporting Station
Overcast Overcast  
Wind Chill: 24°   Ceiling: 2700
Heat Index: 29°   Visibility: 10mi
Dew Point: 19°   Wind: 5mph
Humidity: 67%   Direction: 260°W
Pressure: 30.39"   Gusts: NA
Location:  37.74°N, 82.76°W
Report Text: KSJS 281555Z AUTO 26004KT 10SM OVC027 M02/M07 A3039 RMK AO2 T10171071
Loading
Personal Weather Stations






























Interactive Weather Map New forecast layout! Learn more

10-Day Weather Forecast

Advertisements
Track Severe Weather on mobile